createdAt,value
2022-11-17T00:00:48.031Z,101901.63
2022-11-17T00:03:19.830Z,101922.94
2022-11-17T00:05:47.616Z,101900.72
2022-11-17T00:08:15.387Z,101944.38
2022-11-17T00:10:45.501Z,101942.75
2022-11-17T00:13:30.912Z,101922.25
2022-11-17T00:16:03.884Z,101930.53
2022-11-17T00:18:51.045Z,101907.53
2022-11-17T00:21:25.554Z,101945.03
2022-11-17T00:23:55.847Z,101945.78
2022-11-17T00:26:25.674Z,101905.72
2022-11-17T00:28:56.620Z,101937.44
2022-11-17T00:31:44.843Z,101937.44
2022-11-17T00:34:17.103Z,101918.53
2022-11-17T00:36:48.982Z,101894.59
2022-11-17T00:39:20.670Z,101930.47
2022-11-17T00:41:50.904Z,101932.19
2022-11-17T00:44:18.744Z,101901.16
2022-11-17T00:46:50.423Z,101934.75
2022-11-17T00:49:21.026Z,101856.06
2022-11-17T00:51:48.822Z,101930.53
2022-11-17T00:54:18.462Z,101915.84
2022-11-17T00:56:49.610Z,101927.81
2022-11-17T00:59:17.445Z,101933.75
2022-11-17T01:01:47.632Z,101932.13
2022-11-17T01:04:19.068Z,101927.75
2022-11-17T01:06:48.462Z,101914.94
2022-11-17T01:09:21.397Z,101921.97
2022-11-17T01:11:52.902Z,101859.47
2022-11-17T01:14:23.169Z,101923.56
2022-11-17T01:16:51.536Z,101870.50
2022-11-17T01:19:25.936Z,101918.41
2022-11-17T01:21:53.757Z,101918.53
2022-11-17T01:24:21.593Z,101857.81
2022-11-17T01:26:52.056Z,101910.81
2022-11-17T01:29:19.860Z,101911.78
2022-11-17T01:31:56.994Z,101898.06
2022-11-17T01:34:28.398Z,101916.03
2022-11-17T01:37:19.242Z,101900.56
2022-11-17T01:39:49.422Z,101904.06
2022-11-17T01:42:19.484Z,101902.34
2022-11-17T01:45:07.889Z,101861.22
2022-11-17T01:47:43.787Z,101894.72
2022-11-17T01:50:26.727Z,101878.34
2022-11-17T01:52:59.672Z,101862.16
2022-11-17T01:55:37.721Z,101886.09
2022-11-17T01:58:13.058Z,101884.28
2022-11-17T02:00:45.067Z,101884.34
2022-11-17T02:03:13.676Z,101882.63
2022-11-17T02:05:52.520Z,101880.91
2022-11-17T02:08:23.432Z,101834.66
2022-11-17T02:10:56.271Z,101877.38
2022-11-17T02:13:24.725Z,101880.00
2022-11-17T02:15:52.523Z,101882.66
2022-11-17T02:18:22.604Z,101845.69
2022-11-17T02:21:12.167Z,101873.97
2022-11-17T02:24:14.690Z,101881.91
2022-11-17T02:27:19.584Z,101882.66
2022-11-17T02:30:01.766Z,101876.75
2022-11-17T02:32:39.084Z,101875.00
2022-11-17T02:35:19.743Z,101781.09
2022-11-17T02:37:58.305Z,101865.75
2022-11-17T02:40:32.761Z,101869.22
2022-11-17T02:43:22.646Z,101859.81
2022-11-17T02:45:59.751Z,101864.97
2022-11-17T02:48:33.636Z,101858.13
2022-11-17T02:51:05.754Z,101831.72
2022-11-17T02:53:36.921Z,101870.88
2022-11-17T02:56:05.442Z,101820.47
2022-11-17T02:58:35.077Z,101830.59
2022-11-17T03:01:29.414Z,101826.50
2022-11-17T03:04:18.681Z,101859.81
2022-11-17T03:06:59.237Z,101858.06
2022-11-17T03:09:33.261Z,101852.09
2022-11-17T03:12:10.174Z,101794.19
2022-11-17T03:14:49.530Z,101842.81
2022-11-17T03:17:22.891Z,101842.97
2022-11-17T03:20:01.168Z,101833.56
2022-11-17T03:22:41.690Z,101842.81
2022-11-17T03:25:17.070Z,101836.88
2022-11-17T03:27:49.225Z,101842.03
2022-11-17T03:30:21.095Z,101842.66
2022-11-17T03:32:56.233Z,101829.00
2022-11-17T03:35:29.273Z,101844.38
2022-11-17T03:38:04.439Z,101841.69
2022-11-17T03:40:37.710Z,101816.72
2022-11-17T03:43:10.332Z,101806.44
2022-11-17T03:45:44.148Z,101841.31
2022-11-17T03:48:20.671Z,101835.09
2022-11-17T03:50:58.521Z,101830.34
2022-11-17T03:53:28.473Z,101840.66
2022-11-17T03:56:05.694Z,101843.91
2022-11-17T03:58:39.764Z,101796.91
2022-11-17T04:01:11.081Z,101834.66
2022-11-17T04:03:42.238Z,101837.22
2022-11-17T04:06:09.990Z,101792.88
2022-11-17T04:08:39.579Z,101777.56
2022-11-17T04:11:25.107Z,101829.00
2022-11-17T04:14:12.096Z,101786.25
2022-11-17T04:16:41.997Z,101825.59
2022-11-17T04:19:11.171Z,101750.31
2022-11-17T04:21:41.137Z,101744.47
2022-11-17T04:24:11.455Z,101778.72
2022-11-17T04:26:58.537Z,101814.63
2022-11-17T04:29:28.538Z,101775.03
2022-11-17T04:31:56.295Z,101817.66
2022-11-17T04:34:27.344Z,101747.22
2022-11-17T04:36:57.335Z,101809.00
2022-11-17T04:39:25.242Z,101785.75
2022-11-17T04:41:56.969Z,101812.81
2022-11-17T04:44:28.523Z,101814.88
2022-11-17T04:46:59.068Z,101805.31
2022-11-17T04:49:28.028Z,101809.28
2022-11-17T04:51:58.020Z,101813.47
2022-11-17T04:54:28.390Z,101754.94
2022-11-17T04:56:56.574Z,101789.69
2022-11-17T04:59:26.582Z,101802.69
2022-11-17T05:01:58.799Z,101810.34
2022-11-17T05:04:49.371Z,101804.94
2022-11-17T05:07:19.111Z,101806.13
2022-11-17T05:09:46.981Z,101806.13
2022-11-17T05:12:32.391Z,101810.00
2022-11-17T05:15:02.324Z,101761.97
2022-11-17T05:17:29.097Z,101730.06
2022-11-17T05:20:00.419Z,101804.91
2022-11-17T05:22:47.752Z,101739.53
2022-11-17T05:25:17.533Z,101779.19
2022-11-17T05:27:45.330Z,101753.25
2022-11-17T05:30:13.866Z,101810.63
2022-11-17T05:32:45.773Z,101808.63
2022-11-17T05:35:15.136Z,101809.38
2022-11-17T05:37:42.901Z,101809.66
2022-11-17T05:40:11.480Z,101790.31
2022-11-17T05:42:39.253Z,101803.09
2022-11-17T05:45:08.364Z,101795.66
2022-11-17T05:47:40.187Z,101799.72
2022-11-17T05:50:08.637Z,101756.16
2022-11-17T05:52:37.789Z,101795.22
2022-11-17T05:55:12.684Z,101786.91
2022-11-17T05:57:40.836Z,101743.28
2022-11-17T06:00:12.181Z,101732.25
2022-11-17T06:02:47.106Z,101799.03
2022-11-17T06:05:20.172Z,101793.31
2022-11-17T06:07:49.981Z,101795.94
2022-11-17T06:10:19.936Z,101795.94
2022-11-17T06:12:48.135Z,101794.28
2022-11-17T06:15:18.101Z,101796.69
2022-11-17T06:17:51.571Z,101794.91
2022-11-17T06:20:25.177Z,101780.44
2022-11-17T06:22:58.714Z,101793.38
2022-11-17T06:25:28.536Z,101754.25
2022-11-17T06:28:00.249Z,101793.59
2022-11-17T06:30:28.093Z,101760.03
2022-11-17T06:32:59.127Z,101704.72
2022-11-17T06:35:33.375Z,101795.28
2022-11-17T06:38:05.285Z,101803.16
2022-11-17T06:40:35.204Z,101798.91
2022-11-17T06:43:10.359Z,101800.56
2022-11-17T06:45:41.960Z,101762.97
2022-11-17T06:48:10.598Z,101803.31
2022-11-17T06:50:38.544Z,101798.97
2022-11-17T06:53:11.074Z,101770.59
2022-11-17T06:55:42.008Z,101802.25
2022-11-17T06:58:12.648Z,101805.50
2022-11-17T07:00:40.525Z,101727.72
2022-11-17T07:03:11.955Z,101795.28
2022-11-17T07:05:42.084Z,101791.88
2022-11-17T07:08:11.416Z,101749.19
2022-11-17T07:10:46.401Z,101751.53
2022-11-17T07:13:19.016Z,101775.13
2022-11-17T07:15:46.939Z,101746.50
2022-11-17T07:18:14.763Z,101745.44
2022-11-17T07:20:44.623Z,101744.84
2022-11-17T07:23:13.955Z,101796.78
2022-11-17T07:25:41.778Z,101786.59
2022-11-17T07:28:11.696Z,101795.09
2022-11-17T07:30:41.343Z,101747.34
2022-11-17T07:33:09.151Z,101792.59
2022-11-17T07:35:38.100Z,101771.88
2022-11-17T07:39:02.149Z,101789.47
2022-11-17T07:41:32.070Z,101753.91
2022-11-17T07:46:45.720Z,101785.00
2022-11-17T07:50:00.222Z,101808.88
2022-11-17T07:52:28.355Z,101790.25
2022-11-17T07:54:56.126Z,101787.78
2022-11-17T07:57:30.566Z,101798.91
2022-11-17T08:00:00.501Z,101789.53
2022-11-17T08:02:28.946Z,101766.53
2022-11-17T08:04:58.649Z,101718.72
2022-11-17T08:07:28.610Z,101739.38
2022-11-17T08:09:56.355Z,101782.13
2022-11-17T08:12:25.693Z,101786.53
2022-11-17T08:14:55.553Z,101787.25
2022-11-17T08:17:23.383Z,101737.00
2022-11-17T08:19:53.353Z,101773.75
2022-11-17T08:22:21.185Z,101706.47
2022-11-17T08:24:49.060Z,101771.47
2022-11-17T08:27:19.084Z,101767.22
2022-11-17T08:29:48.482Z,101764.72
2022-11-17T08:32:16.468Z,101768.09
2022-11-17T08:34:44.400Z,101763.06
2022-11-17T08:37:12.336Z,101770.63
2022-11-17T08:39:40.160Z,101728.91
2022-11-17T08:42:09.990Z,101716.06
2022-11-17T08:44:39.823Z,101773.22
2022-11-17T08:47:09.082Z,101708.16
2022-11-17T08:49:38.845Z,101725.50
2022-11-17T08:52:08.825Z,101777.72
2022-11-17T08:54:36.773Z,101778.63
2022-11-17T08:57:06.679Z,101753.13
2022-11-17T08:59:36.785Z,101769.34
2022-11-17T09:02:04.967Z,101765.13
2022-11-17T09:04:36.133Z,101769.38
2022-11-17T09:07:06.330Z,101772.00
2022-11-17T09:09:34.719Z,101736.22
2022-11-17T09:12:04.471Z,101752.44
2022-11-17T09:14:34.446Z,101702.06
2022-11-17T09:17:02.181Z,101771.22
2022-11-17T09:19:32.379Z,101765.31
2022-11-17T09:22:03.646Z,101774.66
2022-11-17T09:24:31.442Z,101768.69
2022-11-17T09:27:01.047Z,101701.31
2022-11-17T09:29:30.988Z,101781.53
2022-11-17T09:31:58.981Z,101779.81
2022-11-17T09:34:29.384Z,101780.59
2022-11-17T09:36:59.236Z,101788.31
2022-11-17T09:39:28.367Z,101775.50
2022-11-17T09:41:57.664Z,101775.50
2022-11-17T09:44:39.819Z,101767.81
2022-11-17T09:47:22.403Z,101771.28
2022-11-17T09:49:59.179Z,101767.91
2022-11-17T09:52:34.051Z,101773.06
2022-11-17T09:55:18.239Z,101732.94
2022-11-17T09:57:51.574Z,101770.47
2022-11-17T10:00:23.255Z,101767.94
2022-11-17T10:02:52.677Z,101766.22
2022-11-17T10:05:27.396Z,101773.88
2022-11-17T10:07:59.977Z,101761.94
2022-11-17T10:10:37.483Z,101757.66
2022-11-17T10:13:13.029Z,101761.94
2022-11-17T10:15:47.426Z,101763.63
2022-11-17T10:18:17.610Z,101757.59
2022-11-17T10:20:46.404Z,101671.44
2022-11-17T10:23:16.531Z,101764.41
2022-11-17T10:25:47.355Z,101764.41
2022-11-17T10:28:26.823Z,101757.63
2022-11-17T10:31:00.269Z,101752.50
2022-11-17T10:33:37.656Z,101753.38
2022-11-17T10:36:16.054Z,101753.41
2022-11-17T10:38:46.156Z,101750.00
2022-11-17T10:41:18.634Z,101751.75
2022-11-17T10:43:58.392Z,101745.81
2022-11-17T10:46:29.919Z,101733.88
2022-11-17T10:49:03.246Z,101742.44
2022-11-17T10:51:33.093Z,101740.75
2022-11-17T10:54:06.768Z,101739.88
2022-11-17T10:56:47.027Z,101736.47
2022-11-17T10:59:18.027Z,101730.50
2022-11-17T11:01:48.929Z,101739.03
2022-11-17T11:04:32.060Z,101729.63
2022-11-17T11:07:15.276Z,101727.94
2022-11-17T11:09:49.379Z,101727.94
2022-11-17T11:12:29.648Z,101721.97
2022-11-17T11:15:01.199Z,101719.41
2022-11-17T11:17:31.031Z,101712.59
2022-11-17T11:19:59.843Z,101721.09
2022-11-17T11:22:39.852Z,101660.56
2022-11-17T11:25:20.557Z,101718.53
2022-11-17T11:28:05.607Z,101716.84
2022-11-17T11:30:39.608Z,101715.13
2022-11-17T11:33:23.571Z,101692.13
2022-11-17T11:36:15.990Z,101703.22
2022-11-17T11:38:53.599Z,101704.88
2022-11-17T11:41:32.513Z,101675.03
2022-11-17T11:44:18.744Z,101703.19
2022-11-17T11:46:55.161Z,101696.34
2022-11-17T11:49:35.949Z,101697.22
2022-11-17T11:52:10.543Z,101705.75
2022-11-17T11:54:51.103Z,101709.16
2022-11-17T11:57:24.674Z,101631.66
2022-11-17T12:00:03.757Z,101689.56
2022-11-17T12:02:43.143Z,101707.50
2022-11-17T12:05:25.851Z,101699.81
2022-11-17T12:08:09.081Z,101705.78
2022-11-17T12:10:49.311Z,101705.78
2022-11-17T12:13:20.198Z,101707.47
2022-11-17T12:15:52.499Z,101701.53
2022-11-17T12:18:33.321Z,101712.63
2022-11-17T12:21:07.670Z,101702.38
2022-11-17T12:23:57.964Z,101704.94
2022-11-17T12:26:28.082Z,101671.69
2022-11-17T12:29:27.276Z,101710.91
2022-11-17T12:32:00.001Z,101704.06
2022-11-17T12:34:30.590Z,101710.03
2022-11-17T12:37:22.031Z,101703.22
2022-11-17T12:39:57.495Z,101710.06
2022-11-17T12:42:27.429Z,101700.69
2022-11-17T12:45:00.247Z,101693.00
2022-11-17T12:47:31.765Z,101701.53
2022-11-17T12:50:22.911Z,101708.34
2022-11-17T12:53:22.345Z,101697.25
2022-11-17T12:56:03.587Z,101699.81
2022-11-17T12:58:42.859Z,101699.81
2022-11-17T13:01:16.596Z,101692.16
2022-11-17T13:03:53.802Z,101693.00
2022-11-17T13:06:35.589Z,101693.84
2022-11-17T13:09:07.490Z,101694.66
2022-11-17T13:11:36.153Z,101701.47
2022-11-17T13:14:16.229Z,101692.94
2022-11-17T13:16:47.916Z,101696.34
2022-11-17T13:19:36.285Z,101686.97
2022-11-17T13:22:07.483Z,101690.38
2022-11-17T13:24:41.009Z,101686.09
2022-11-17T13:27:21.293Z,101686.97
2022-11-17T13:29:49.982Z,101691.22
2022-11-17T13:32:21.276Z,101645.16
2022-11-17T13:34:53.116Z,101691.19
2022-11-17T13:37:24.576Z,101609.34
2022-11-17T13:39:59.089Z,101692.88
2022-11-17T13:42:29.382Z,101684.34
2022-11-17T13:45:00.262Z,101676.72
2022-11-17T13:47:42.731Z,101684.44
2022-11-17T13:50:38.886Z,101690.41
2022-11-17T13:53:23.484Z,101687.00
2022-11-17T13:55:51.594Z,101662.25
2022-11-17T13:58:31.633Z,101693.78
2022-11-17T14:01:00.315Z,101698.00
2022-11-17T14:03:39.253Z,101686.09
2022-11-17T14:06:10.304Z,101689.50
2022-11-17T14:08:42.121Z,101668.09
2022-11-17T14:11:23.069Z,101643.34
2022-11-17T14:13:55.648Z,101697.97
2022-11-17T14:16:29.557Z,101693.63
2022-11-17T14:19:03.317Z,101695.31
2022-11-17T14:21:35.370Z,101695.34
2022-11-17T14:24:07.952Z,101700.31
2022-11-17T14:26:37.793Z,101696.06
2022-11-17T14:29:05.567Z,101703.72
2022-11-17T14:31:35.663Z,101696.13
2022-11-17T14:34:05.364Z,101691.78
2022-11-17T14:36:34.870Z,101678.94
2022-11-17T14:39:05.152Z,101689.16
2022-11-17T14:41:34.764Z,101693.31
2022-11-17T14:44:02.587Z,101691.63
2022-11-17T14:46:32.675Z,101692.50
2022-11-17T14:49:04.691Z,101688.13
2022-11-17T14:51:34.332Z,101684.75
2022-11-17T14:54:02.982Z,101690.69
2022-11-17T14:56:32.762Z,101700.00
2022-11-17T14:59:00.894Z,101699.91
2022-11-17T15:01:30.960Z,101689.72
2022-11-17T15:04:27.336Z,101689.72
2022-11-17T15:06:55.279Z,101692.38
2022-11-17T15:09:25.341Z,101693.97
2022-11-17T15:11:53.101Z,101648.72
2022-11-17T15:14:20.882Z,101693.94
2022-11-17T15:16:52.947Z,101685.38
2022-11-17T15:19:20.732Z,101691.31
2022-11-17T15:21:48.491Z,101684.44
2022-11-17T15:24:21.724Z,101695.56
2022-11-17T15:26:49.512Z,101636.66
2022-11-17T15:29:18.059Z,101693.06
2022-11-17T15:31:50.108Z,101693.03
2022-11-17T15:34:20.692Z,101699.03
2022-11-17T15:36:48.962Z,101690.34
2022-11-17T15:39:20.916Z,101686.00
2022-11-17T15:41:50.407Z,101685.03
2022-11-17T15:44:19.002Z,101669.72
2022-11-17T15:46:48.786Z,101683.41
2022-11-17T15:49:20.887Z,101654.31
2022-11-17T15:51:48.682Z,101642.44
2022-11-17T15:54:20.954Z,101677.38
2022-11-17T15:56:52.139Z,101689.28
2022-11-17T15:59:20.184Z,101686.75
2022-11-17T16:01:48.354Z,101694.44
2022-11-17T16:04:16.984Z,101688.59
2022-11-17T16:06:46.510Z,101633.78
2022-11-17T16:09:15.548Z,101682.66
2022-11-17T16:11:45.406Z,101685.09
2022-11-17T16:14:14.790Z,101682.66
2022-11-17T16:16:43.790Z,101680.91
2022-11-17T16:19:14.342Z,101682.59
2022-11-17T16:21:42.457Z,101674.94
2022-11-17T16:24:12.273Z,101683.59
2022-11-17T16:26:43.270Z,101675.81
2022-11-17T16:29:14.992Z,101675.94
2022-11-17T16:31:45.312Z,101675.00
2022-11-17T16:34:15.460Z,101675.72
2022-11-17T16:36:46.366Z,101679.09
2022-11-17T16:39:18.306Z,101687.47
2022-11-17T16:41:46.683Z,101659.41
2022-11-17T16:44:19.174Z,101677.34
2022-11-17T16:46:49.946Z,101674.69
2022-11-17T16:49:19.513Z,101689.25
2022-11-17T16:51:50.528Z,101686.63
2022-11-17T16:54:18.860Z,101687.53
2022-11-17T16:56:47.083Z,101639.63
2022-11-17T16:59:18.547Z,101684.13
2022-11-17T17:01:48.751Z,101693.53
2022-11-17T17:04:16.555Z,101682.56
2022-11-17T17:06:47.822Z,101672.25
2022-11-17T17:09:20.677Z,101682.47
2022-11-17T17:11:54.487Z,101674.91
2022-11-17T17:14:25.517Z,101668.88
2022-11-17T17:16:53.271Z,101668.81
2022-11-17T17:19:23.302Z,101669.59
2022-11-17T17:21:53.292Z,101661.84
2022-11-17T17:24:21.033Z,101606.88
2022-11-17T17:26:48.941Z,101673.56
2022-11-17T17:29:17.067Z,101670.22
2022-11-17T17:31:46.444Z,101676.03
2022-11-17T17:34:14.756Z,101616.34
2022-11-17T17:36:42.660Z,101678.75
2022-11-17T17:39:17.500Z,101689.78
2022-11-17T17:41:46.128Z,101689.84
2022-11-17T17:44:16.623Z,101689.00
2022-11-17T17:46:48.700Z,101690.44
2022-11-17T17:49:19.017Z,101698.06
2022-11-17T17:51:47.274Z,101693.09
2022-11-17T17:54:19.574Z,101693.09
2022-11-17T17:56:49.765Z,101693.00
2022-11-17T17:59:18.203Z,101675.97
2022-11-17T18:01:49.969Z,101686.19
2022-11-17T18:04:19.992Z,101684.63
2022-11-17T18:06:49.656Z,101679.41
2022-11-17T18:09:20.456Z,101697.41
2022-11-17T18:11:51.469Z,101705.78
2022-11-17T18:14:24.860Z,101701.41
2022-11-17T18:16:56.302Z,101698.00
2022-11-17T18:19:29.795Z,101700.56
2022-11-17T18:22:02.496Z,101699.78
2022-11-17T18:24:30.260Z,101693.72
2022-11-17T18:26:58.069Z,101701.28
2022-11-17T18:29:28.056Z,101700.50
2022-11-17T18:31:57.251Z,101697.88
2022-11-17T18:34:26.358Z,101661.38
2022-11-17T18:36:59.074Z,101699.03
2022-11-17T18:39:28.272Z,101703.97
2022-11-17T18:41:56.148Z,101701.66
2022-11-17T18:44:25.914Z,101692.16
2022-11-17T18:46:58.254Z,101699.00
2022-11-17T18:49:33.121Z,101690.66
2022-11-17T18:52:01.006Z,101692.38
2022-11-17T18:54:28.909Z,101699.78
2022-11-17T18:57:01.938Z,101699.00
2022-11-17T18:59:29.893Z,101698.31
2022-11-17T19:01:58.049Z,101689.88
2022-11-17T19:04:32.564Z,101700.19
2022-11-17T19:07:11.062Z,101701.84
2022-11-17T19:09:40.781Z,101696.63
2022-11-17T19:12:12.494Z,101689.72
2022-11-17T19:14:41.580Z,101699.06
2022-11-17T19:17:18.246Z,101697.41
2022-11-17T19:19:57.858Z,101683.72
2022-11-17T19:22:36.436Z,101699.13
2022-11-17T19:25:04.676Z,101689.59
2022-11-17T19:27:34.913Z,101696.41
2022-11-17T19:30:02.859Z,101694.47
2022-11-17T19:32:36.828Z,101694.47
2022-11-17T19:35:18.382Z,101698.66
2022-11-17T19:37:52.900Z,101697.03
2022-11-17T19:40:27.492Z,101670.47
2022-11-17T19:43:02.446Z,101695.91
2022-11-17T19:45:42.724Z,101693.94
2022-11-17T19:48:12.379Z,101691.56
2022-11-17T19:50:49.448Z,101686.19
2022-11-17T19:53:21.032Z,101703.53
2022-11-17T19:56:10.304Z,101701.69
2022-11-17T19:58:43.595Z,101701.75
2022-11-17T20:01:15.718Z,101695.06
2022-11-17T20:03:44.277Z,101697.03
2022-11-17T20:06:17.440Z,101697.16
2022-11-17T20:09:09.207Z,101685.16
2022-11-17T20:11:37.710Z,101633.94
2022-11-17T20:14:09.184Z,101693.66
2022-11-17T20:16:39.213Z,101622.84
2022-11-17T20:19:07.171Z,101691.13
2022-11-17T20:21:40.350Z,101678.38
2022-11-17T20:24:10.246Z,101691.09
2022-11-17T20:26:43.120Z,101654.34
2022-11-17T20:29:11.188Z,101653.28
2022-11-17T20:31:42.574Z,101706.09
2022-11-17T20:34:13.962Z,101696.09
2022-11-17T20:36:41.854Z,101645.34
2022-11-17T20:39:11.299Z,101704.31
2022-11-17T20:41:39.616Z,101657.22
2022-11-17T20:44:23.819Z,101713.78
2022-11-17T20:46:52.835Z,101711.22
2022-11-17T20:49:20.703Z,101695.25
2022-11-17T20:51:48.852Z,101673.50
2022-11-17T20:54:22.276Z,101659.16
2022-11-17T20:56:53.352Z,101710.38
2022-11-17T20:59:21.569Z,101653.22
2022-11-17T21:02:23.092Z,101706.28
2022-11-17T21:04:53.164Z,101712.22
2022-11-17T21:07:21.081Z,101708.13
2022-11-17T21:09:52.473Z,101723.34
2022-11-17T21:12:22.339Z,101724.16
2022-11-17T21:14:50.156Z,101669.63
2022-11-17T21:17:32.072Z,101697.03
2022-11-17T21:20:00.040Z,101717.47
2022-11-17T21:22:27.899Z,101681.63
2022-11-17T21:25:00.891Z,101721.00
2022-11-17T21:27:30.863Z,101653.53
2022-11-17T21:29:58.636Z,101628.84
2022-11-17T21:32:28.434Z,101720.00
2022-11-17T21:34:57.384Z,101687.44
2022-11-17T21:37:27.908Z,101707.22
2022-11-17T21:40:01.132Z,101672.09
2022-11-17T21:42:28.920Z,101719.00
2022-11-17T21:44:56.704Z,101689.88
2022-11-17T21:47:24.717Z,101676.47
2022-11-17T21:49:52.533Z,101722.69
2022-11-17T21:52:20.546Z,101718.44
2022-11-17T21:54:52.741Z,101719.31
2022-11-17T21:57:22.201Z,101719.94
2022-11-17T21:59:50.006Z,101726.72
2022-11-17T22:02:22.089Z,101636.09
2022-11-17T22:04:49.911Z,101695.81
2022-11-17T22:07:17.953Z,101638.34
2022-11-17T22:09:50.041Z,101736.66
2022-11-17T22:12:17.825Z,101738.28
2022-11-17T22:14:46.935Z,101721.25
2022-11-17T22:17:18.914Z,101724.03
2022-11-17T22:19:46.729Z,101726.72
2022-11-17T22:22:14.557Z,101640.34
2022-11-17T22:24:49.778Z,101738.38
2022-11-17T22:27:17.732Z,101698.13
2022-11-17T22:29:48.883Z,101670.09
2022-11-17T22:32:16.646Z,101741.16
2022-11-17T22:34:44.397Z,101738.66
2022-11-17T22:37:16.211Z,101732.84
2022-11-17T22:39:44.015Z,101694.13
2022-11-17T22:42:14.231Z,101743.03
2022-11-17T22:44:46.063Z,101740.56
2022-11-17T22:47:15.631Z,101743.75
2022-11-17T22:49:43.467Z,101693.28
2022-11-17T22:52:15.630Z,101750.53
2022-11-17T22:54:43.374Z,101731.78
2022-11-17T22:57:11.125Z,101752.38
2022-11-17T22:59:42.904Z,101705.44
2022-11-17T23:02:10.717Z,101725.16
2022-11-17T23:04:39.863Z,101750.88
2022-11-17T23:07:09.659Z,101753.38
2022-11-17T23:09:37.490Z,101757.06
2022-11-17T23:12:05.424Z,101712.69
2022-11-17T23:14:35.136Z,101705.06
2022-11-17T23:17:02.914Z,101745.22
2022-11-17T23:19:30.719Z,101749.50
2022-11-17T23:22:03.500Z,101742.50
2022-11-17T23:24:31.279Z,101715.06
2022-11-17T23:27:01.189Z,101716.75
2022-11-17T23:29:31.096Z,101752.50
2022-11-17T23:31:58.912Z,101692.81
2022-11-17T23:34:28.908Z,101719.56
2022-11-17T23:37:03.476Z,101756.13
2022-11-17T23:39:34.981Z,101757.88
2022-11-17T23:42:07.164Z,101758.78
2022-11-17T23:44:35.033Z,101710.94
2022-11-17T23:47:03.279Z,101768.25
2022-11-17T23:49:35.032Z,101755.47
2022-11-17T23:52:02.925Z,101761.56
2022-11-17T23:54:30.819Z,101761.63
2022-11-17T23:57:05.965Z,101761.63
2022-11-17T23:59:33.740Z,101763.25
